sensor_id;sensor_type;location;lat;lon;timestamp;P1;durP1;ratioP1;P2;durP2;ratioP2
20076;SDS011;12348;42.710;23.378;2023-09-19T00:00:04;7.27;;;5.17;;
20076;SDS011;12348;42.710;23.378;2023-09-19T00:02:32;11.47;;;5.80;;
20076;SDS011;12348;42.710;23.378;2023-09-19T00:05:00;7.77;;;5.27;;
20076;SDS011;12348;42.710;23.378;2023-09-19T00:07:29;6.47;;;4.87;;
20076;SDS011;12348;42.710;23.378;2023-09-19T00:09:56;9.73;;;5.13;;
20076;SDS011;12348;42.710;23.378;2023-09-19T00:12:23;7.13;;;5.40;;
20076;SDS011;12348;42.710;23.378;2023-09-19T00:14:49;10.97;;;5.57;;
20076;SDS011;12348;42.710;23.378;2023-09-19T00:17:17;8.53;;;5.27;;
20076;SDS011;12348;42.710;23.378;2023-09-19T00:19:46;14.00;;;5.47;;
20076;SDS011;12348;42.710;23.378;2023-09-19T00:22:18;7.47;;;5.30;;
20076;SDS011;12348;42.710;23.378;2023-09-19T00:24:45;9.60;;;6.10;;
20076;SDS011;12348;42.710;23.378;2023-09-19T00:27:12;7.23;;;5.10;;
20076;SDS011;12348;42.710;23.378;2023-09-19T00:29:38;8.30;;;6.07;;
20076;SDS011;12348;42.710;23.378;2023-09-19T00:32:06;8.00;;;6.00;;
20076;SDS011;12348;42.710;23.378;2023-09-19T00:34:33;12.20;;;5.53;;
20076;SDS011;12348;42.710;23.378;2023-09-19T00:37:00;9.53;;;5.93;;
20076;SDS011;12348;42.710;23.378;2023-09-19T00:39:30;9.17;;;6.07;;
20076;SDS011;12348;42.710;23.378;2023-09-19T00:41:57;8.37;;;5.47;;
20076;SDS011;12348;42.710;23.378;2023-09-19T00:44:29;7.60;;;5.53;;
20076;SDS011;12348;42.710;23.378;2023-09-19T00:46:56;8.03;;;5.43;;
20076;SDS011;12348;42.710;23.378;2023-09-19T00:49:24;12.63;;;6.17;;
20076;SDS011;12348;42.710;23.378;2023-09-19T00:51:51;9.43;;;5.13;;
20076;SDS011;12348;42.710;23.378;2023-09-19T00:54:18;9.80;;;5.73;;
20076;SDS011;12348;42.710;23.378;2023-09-19T00:56:47;11.10;;;5.77;;
20076;SDS011;12348;42.710;23.378;2023-09-19T00:59:15;8.87;;;5.83;;
20076;SDS011;12348;42.710;23.378;2023-09-19T01:01:42;10.43;;;6.83;;
20076;SDS011;12348;42.710;23.378;2023-09-19T01:04:11;8.80;;;6.13;;
20076;SDS011;12348;42.710;23.378;2023-09-19T01:06:38;7.17;;;5.67;;
20076;SDS011;12348;42.710;23.378;2023-09-19T01:09:05;8.90;;;6.33;;
20076;SDS011;12348;42.710;23.378;2023-09-19T01:11:34;10.37;;;6.67;;
20076;SDS011;12348;42.710;23.378;2023-09-19T01:14:11;9.77;;;5.97;;
20076;SDS011;12348;42.710;23.378;2023-09-19T01:16:48;11.87;;;7.03;;
20076;SDS011;12348;42.710;23.378;2023-09-19T01:19:31;12.17;;;7.10;;
20076;SDS011;12348;42.710;23.378;2023-09-19T01:22:16;10.53;;;6.37;;
20076;SDS011;12348;42.710;23.378;2023-09-19T01:28:02;13.13;;;6.77;;
20076;SDS011;12348;42.710;23.378;2023-09-19T01:30:44;12.10;;;7.53;;
20076;SDS011;12348;42.710;23.378;2023-09-19T01:33:13;9.30;;;6.23;;
20076;SDS011;12348;42.710;23.378;2023-09-19T01:35:40;10.93;;;6.63;;
20076;SDS011;12348;42.710;23.378;2023-09-19T01:38:07;11.93;;;7.47;;
20076;SDS011;12348;42.710;23.378;2023-09-19T01:40:38;10.50;;;7.40;;
20076;SDS011;12348;42.710;23.378;2023-09-19T01:43:10;12.17;;;6.90;;
20076;SDS011;12348;42.710;23.378;2023-09-19T01:45:50;9.37;;;6.87;;
20076;SDS011;12348;42.710;23.378;2023-09-19T01:48:25;13.23;;;6.53;;
20076;SDS011;12348;42.710;23.378;2023-09-19T01:51:05;12.13;;;6.73;;
20076;SDS011;12348;42.710;23.378;2023-09-19T01:53:35;12.73;;;7.30;;
20076;SDS011;12348;42.710;23.378;2023-09-19T01:56:07;10.27;;;6.87;;
20076;SDS011;12348;42.710;23.378;2023-09-19T01:58:38;13.47;;;7.57;;
20076;SDS011;12348;42.710;23.378;2023-09-19T02:01:12;17.20;;;7.50;;
20076;SDS011;12348;42.710;23.378;2023-09-19T02:03:44;11.67;;;7.43;;
20076;SDS011;12348;42.710;23.378;2023-09-19T02:06:13;14.00;;;7.30;;
20076;SDS011;12348;42.710;23.378;2023-09-19T02:08:40;10.70;;;7.27;;
20076;SDS011;12348;42.710;23.378;2023-09-19T02:11:07;13.03;;;7.67;;
20076;SDS011;12348;42.710;23.378;2023-09-19T02:13:34;13.93;;;8.03;;
20076;SDS011;12348;42.710;23.378;2023-09-19T02:16:01;12.50;;;7.07;;
20076;SDS011;12348;42.710;23.378;2023-09-19T02:18:30;9.80;;;7.53;;
20076;SDS011;12348;42.710;23.378;2023-09-19T02:21:00;10.93;;;7.13;;
20076;SDS011;12348;42.710;23.378;2023-09-19T02:23:26;13.33;;;8.03;;
20076;SDS011;12348;42.710;23.378;2023-09-19T02:25:55;12.07;;;7.90;;
20076;SDS011;12348;42.710;23.378;2023-09-19T02:28:23;11.60;;;6.80;;
20076;SDS011;12348;42.710;23.378;2023-09-19T02:30:50;17.10;;;9.30;;
20076;SDS011;12348;42.710;23.378;2023-09-19T02:33:17;13.57;;;7.83;;
20076;SDS011;12348;42.710;23.378;2023-09-19T02:35:46;12.17;;;7.43;;
20076;SDS011;12348;42.710;23.378;2023-09-19T02:38:12;11.10;;;7.50;;
20076;SDS011;12348;42.710;23.378;2023-09-19T02:40:46;15.30;;;8.73;;
20076;SDS011;12348;42.710;23.378;2023-09-19T02:43:12;11.83;;;8.00;;
20076;SDS011;12348;42.710;23.378;2023-09-19T02:45:42;16.40;;;8.20;;
20076;SDS011;12348;42.710;23.378;2023-09-19T02:48:09;15.03;;;8.77;;
20076;SDS011;12348;42.710;23.378;2023-09-19T02:50:37;11.77;;;8.63;;
20076;SDS011;12348;42.710;23.378;2023-09-19T02:53:06;13.17;;;7.77;;
20076;SDS011;12348;42.710;23.378;2023-09-19T02:55:35;16.53;;;8.33;;
20076;SDS011;12348;42.710;23.378;2023-09-19T02:58:03;13.37;;;8.77;;
20076;SDS011;12348;42.710;23.378;2023-09-19T03:00:32;9.73;;;6.90;;
20076;SDS011;12348;42.710;23.378;2023-09-19T03:03:00;12.70;;;9.33;;
20076;SDS011;12348;42.710;23.378;2023-09-19T03:05:28;14.37;;;10.10;;
20076;SDS011;12348;42.710;23.378;2023-09-19T03:07:56;14.80;;;9.87;;
20076;SDS011;12348;42.710;23.378;2023-09-19T03:10:28;14.70;;;10.13;;
20076;SDS011;12348;42.710;23.378;2023-09-19T03:12:56;21.47;;;11.43;;
20076;SDS011;12348;42.710;23.378;2023-09-19T03:15:25;17.23;;;9.33;;
20076;SDS011;12348;42.710;23.378;2023-09-19T03:17:51;14.70;;;9.60;;
20076;SDS011;12348;42.710;23.378;2023-09-19T03:20:18;19.33;;;9.60;;
20076;SDS011;12348;42.710;23.378;2023-09-19T03:22:46;16.63;;;9.40;;
20076;SDS011;12348;42.710;23.378;2023-09-19T03:25:14;14.47;;;10.23;;
20076;SDS011;12348;42.710;23.378;2023-09-19T03:27:43;17.40;;;11.23;;
20076;SDS011;12348;42.710;23.378;2023-09-19T03:30:11;18.13;;;10.37;;
20076;SDS011;12348;42.710;23.378;2023-09-19T03:32:43;15.13;;;10.53;;
20076;SDS011;12348;42.710;23.378;2023-09-19T03:35:10;20.17;;;11.47;;
20076;SDS011;12348;42.710;23.378;2023-09-19T03:37:39;12.70;;;8.97;;
20076;SDS011;12348;42.710;23.378;2023-09-19T03:40:07;15.63;;;9.87;;
20076;SDS011;12348;42.710;23.378;2023-09-19T03:42:37;12.93;;;9.20;;
20076;SDS011;12348;42.710;23.378;2023-09-19T03:45:09;18.87;;;9.50;;
20076;SDS011;12348;42.710;23.378;2023-09-19T03:47:38;14.87;;;9.90;;
20076;SDS011;12348;42.710;23.378;2023-09-19T03:50:05;13.50;;;9.27;;
20076;SDS011;12348;42.710;23.378;2023-09-19T03:52:33;17.30;;;11.13;;
20076;SDS011;12348;42.710;23.378;2023-09-19T03:55:00;13.80;;;9.10;;
20076;SDS011;12348;42.710;23.378;2023-09-19T03:57:27;15.10;;;9.40;;
20076;SDS011;12348;42.710;23.378;2023-09-19T03:59:54;15.50;;;10.53;;
20076;SDS011;12348;42.710;23.378;2023-09-19T04:02:22;18.80;;;10.23;;
20076;SDS011;12348;42.710;23.378;2023-09-19T04:04:50;22.37;;;13.57;;
20076;SDS011;12348;42.710;23.378;2023-09-19T04:07:17;16.80;;;10.97;;
20076;SDS011;12348;42.710;23.378;2023-09-19T04:09:44;15.13;;;9.43;;
20076;SDS011;12348;42.710;23.378;2023-09-19T04:12:11;16.10;;;9.93;;
20076;SDS011;12348;42.710;23.378;2023-09-19T04:14:38;16.87;;;9.00;;
20076;SDS011;12348;42.710;23.378;2023-09-19T04:17:05;16.87;;;11.07;;
20076;SDS011;12348;42.710;23.378;2023-09-19T04:19:33;32.10;;;17.83;;
20076;SDS011;12348;42.710;23.378;2023-09-19T04:22:01;27.70;;;16.47;;
20076;SDS011;12348;42.710;23.378;2023-09-19T04:24:28;20.07;;;10.33;;
20076;SDS011;12348;42.710;23.378;2023-09-19T04:26:56;24.73;;;10.20;;
20076;SDS011;12348;42.710;23.378;2023-09-19T04:29:24;30.07;;;15.20;;
20076;SDS011;12348;42.710;23.378;2023-09-19T04:31:54;15.17;;;9.10;;
20076;SDS011;12348;42.710;23.378;2023-09-19T04:34:22;35.00;;;19.00;;
20076;SDS011;12348;42.710;23.378;2023-09-19T04:36:51;12.77;;;8.40;;
20076;SDS011;12348;42.710;23.378;2023-09-19T04:39:18;13.43;;;8.47;;
20076;SDS011;12348;42.710;23.378;2023-09-19T04:41:46;13.13;;;7.77;;
20076;SDS011;12348;42.710;23.378;2023-09-19T04:44:13;19.23;;;10.47;;
20076;SDS011;12348;42.710;23.378;2023-09-19T04:46:40;23.03;;;12.50;;
20076;SDS011;12348;42.710;23.378;2023-09-19T04:49:07;20.23;;;8.00;;
20076;SDS011;12348;42.710;23.378;2023-09-19T04:51:34;12.63;;;6.93;;
20076;SDS011;12348;42.710;23.378;2023-09-19T04:54:04;13.17;;;6.80;;
20076;SDS011;12348;42.710;23.378;2023-09-19T04:56:31;15.50;;;8.00;;
20076;SDS011;12348;42.710;23.378;2023-09-19T04:58:59;10.13;;;7.20;;
20076;SDS011;12348;42.710;23.378;2023-09-19T05:01:26;12.83;;;8.17;;
20076;SDS011;12348;42.710;23.378;2023-09-19T05:03:53;11.60;;;5.93;;
20076;SDS011;12348;42.710;23.378;2023-09-19T05:06:19;8.23;;;6.13;;
20076;SDS011;12348;42.710;23.378;2023-09-19T05:08:47;17.90;;;8.63;;
20076;SDS011;12348;42.710;23.378;2023-09-19T05:11:17;13.70;;;8.07;;
20076;SDS011;12348;42.710;23.378;2023-09-19T05:13:44;13.83;;;8.00;;
20076;SDS011;12348;42.710;23.378;2023-09-19T05:16:11;9.07;;;5.70;;
20076;SDS011;12348;42.710;23.378;2023-09-19T05:18:37;9.60;;;5.80;;
20076;SDS011;12348;42.710;23.378;2023-09-19T05:21:04;8.73;;;5.73;;
20076;SDS011;12348;42.710;23.378;2023-09-19T05:23:32;7.80;;;5.53;;
20076;SDS011;12348;42.710;23.378;2023-09-19T05:25:59;6.93;;;5.00;;
20076;SDS011;12348;42.710;23.378;2023-09-19T05:28:28;8.80;;;5.73;;
20076;SDS011;12348;42.710;23.378;2023-09-19T05:30:54;6.70;;;4.93;;
20076;SDS011;12348;42.710;23.378;2023-09-19T05:33:21;7.77;;;5.00;;
20076;SDS011;12348;42.710;23.378;2023-09-19T05:35:48;7.73;;;4.10;;
20076;SDS011;12348;42.710;23.378;2023-09-19T05:38:15;7.17;;;4.13;;
20076;SDS011;12348;42.710;23.378;2023-09-19T05:40:44;12.13;;;5.70;;
20076;SDS011;12348;42.710;23.378;2023-09-19T05:43:11;5.63;;;4.03;;
20076;SDS011;12348;42.710;23.378;2023-09-19T05:45:40;8.20;;;4.00;;
20076;SDS011;12348;42.710;23.378;2023-09-19T05:48:08;9.67;;;4.83;;
20076;SDS011;12348;42.710;23.378;2023-09-19T05:50:36;8.00;;;4.70;;
20076;SDS011;12348;42.710;23.378;2023-09-19T05:53:03;7.87;;;4.43;;
20076;SDS011;12348;42.710;23.378;2023-09-19T05:55:30;6.83;;;3.93;;
20076;SDS011;12348;42.710;23.378;2023-09-19T05:57:57;8.77;;;4.90;;
20076;SDS011;12348;42.710;23.378;2023-09-19T06:00:24;5.67;;;4.30;;
20076;SDS011;12348;42.710;23.378;2023-09-19T06:02:55;6.37;;;4.00;;
20076;SDS011;12348;42.710;23.378;2023-09-19T06:05:23;8.83;;;5.57;;
20076;SDS011;12348;42.710;23.378;2023-09-19T06:07:51;7.10;;;4.70;;
20076;SDS011;12348;42.710;23.378;2023-09-19T06:10:18;7.97;;;4.30;;
20076;SDS011;12348;42.710;23.378;2023-09-19T06:12:46;4.50;;;3.30;;
20076;SDS011;12348;42.710;23.378;2023-09-19T06:15:14;6.83;;;4.07;;
20076;SDS011;12348;42.710;23.378;2023-09-19T06:17:46;7.70;;;3.63;;
20076;SDS011;12348;42.710;23.378;2023-09-19T06:20:14;9.77;;;4.80;;
20076;SDS011;12348;42.710;23.378;2023-09-19T06:22:42;9.50;;;5.00;;
20076;SDS011;12348;42.710;23.378;2023-09-19T06:25:09;6.97;;;5.30;;
20076;SDS011;12348;42.710;23.378;2023-09-19T06:27:37;5.53;;;4.10;;
20076;SDS011;12348;42.710;23.378;2023-09-19T06:30:05;10.13;;;5.13;;
20076;SDS011;12348;42.710;23.378;2023-09-19T06:32:33;4.43;;;3.77;;
20076;SDS011;12348;42.710;23.378;2023-09-19T06:34:59;13.53;;;5.83;;
20076;SDS011;12348;42.710;23.378;2023-09-19T06:37:28;11.50;;;5.33;;
20076;SDS011;12348;42.710;23.378;2023-09-19T06:39:55;7.30;;;3.63;;
20076;SDS011;12348;42.710;23.378;2023-09-19T06:42:22;6.53;;;3.73;;
20076;SDS011;12348;42.710;23.378;2023-09-19T06:44:48;7.13;;;4.27;;
20076;SDS011;12348;42.710;23.378;2023-09-19T06:47:15;6.57;;;4.00;;
20076;SDS011;12348;42.710;23.378;2023-09-19T06:49:42;8.87;;;4.23;;
20076;SDS011;12348;42.710;23.378;2023-09-19T06:52:10;12.13;;;6.70;;
20076;SDS011;12348;42.710;23.378;2023-09-19T06:54:38;4.23;;;3.23;;
20076;SDS011;12348;42.710;23.378;2023-09-19T06:57:05;8.00;;;4.17;;
20076;SDS011;12348;42.710;23.378;2023-09-19T06:59:34;10.73;;;5.07;;
20076;SDS011;12348;42.710;23.378;2023-09-19T07:02:02;6.27;;;3.90;;
20076;SDS011;12348;42.710;23.378;2023-09-19T07:04:31;9.57;;;4.90;;
20076;SDS011;12348;42.710;23.378;2023-09-19T07:06:58;9.47;;;4.23;;
20076;SDS011;12348;42.710;23.378;2023-09-19T07:09:25;9.03;;;4.40;;
20076;SDS011;12348;42.710;23.378;2023-09-19T07:11:54;22.57;;;7.10;;
20076;SDS011;12348;42.710;23.378;2023-09-19T07:14:21;9.20;;;5.27;;
20076;SDS011;12348;42.710;23.378;2023-09-19T07:16:47;8.27;;;3.83;;
20076;SDS011;12348;42.710;23.378;2023-09-19T07:19:14;6.87;;;4.10;;
20076;SDS011;12348;42.710;23.378;2023-09-19T07:21:41;4.67;;;3.43;;
20076;SDS011;12348;42.710;23.378;2023-09-19T07:24:08;8.40;;;3.50;;
20076;SDS011;12348;42.710;23.378;2023-09-19T07:26:35;4.43;;;3.47;;
20076;SDS011;12348;42.710;23.378;2023-09-19T07:29:03;8.57;;;4.40;;
20076;SDS011;12348;42.710;23.378;2023-09-19T07:31:32;9.03;;;4.33;;
20076;SDS011;12348;42.710;23.378;2023-09-19T07:33:58;9.47;;;4.30;;
20076;SDS011;12348;42.710;23.378;2023-09-19T07:36:25;12.43;;;7.87;;
20076;SDS011;12348;42.710;23.378;2023-09-19T07:38:54;9.27;;;4.47;;
20076;SDS011;12348;42.710;23.378;2023-09-19T07:41:23;11.37;;;6.87;;
20076;SDS011;12348;42.710;23.378;2023-09-19T07:43:50;7.90;;;5.00;;
20076;SDS011;12348;42.710;23.378;2023-09-19T07:46:18;7.37;;;3.93;;
20076;SDS011;12348;42.710;23.378;2023-09-19T07:48:46;6.93;;;4.27;;
20076;SDS011;12348;42.710;23.378;2023-09-19T07:51:14;8.77;;;4.80;;
20076;SDS011;12348;42.710;23.378;2023-09-19T07:53:41;7.70;;;3.97;;
20076;SDS011;12348;42.710;23.378;2023-09-19T07:56:09;13.00;;;4.73;;
20076;SDS011;12348;42.710;23.378;2023-09-19T07:58:38;9.97;;;4.10;;
20076;SDS011;12348;42.710;23.378;2023-09-19T08:01:06;8.00;;;3.60;;
20076;SDS011;12348;42.710;23.378;2023-09-19T08:03:35;10.13;;;3.67;;
20076;SDS011;12348;42.710;23.378;2023-09-19T08:06:05;6.40;;;3.87;;
20076;SDS011;12348;42.710;23.378;2023-09-19T08:08:33;8.37;;;3.87;;
20076;SDS011;12348;42.710;23.378;2023-09-19T08:11:02;9.17;;;4.40;;
20076;SDS011;12348;42.710;23.378;2023-09-19T08:13:35;6.60;;;3.83;;
20076;SDS011;12348;42.710;23.378;2023-09-19T08:16:03;10.27;;;3.83;;
20076;SDS011;12348;42.710;23.378;2023-09-19T08:18:29;10.83;;;6.27;;
20076;SDS011;12348;42.710;23.378;2023-09-19T08:20:58;8.47;;;4.80;;
20076;SDS011;12348;42.710;23.378;2023-09-19T08:23:25;9.50;;;4.77;;
20076;SDS011;12348;42.710;23.378;2023-09-19T08:25:56;6.07;;;4.43;;
20076;SDS011;12348;42.710;23.378;2023-09-19T08:28:23;6.60;;;3.80;;
20076;SDS011;12348;42.710;23.378;2023-09-19T08:30:49;7.50;;;4.97;;
20076;SDS011;12348;42.710;23.378;2023-09-19T08:33:17;10.30;;;4.70;;
20076;SDS011;12348;42.710;23.378;2023-09-19T08:35:44;5.87;;;4.00;;
20076;SDS011;12348;42.710;23.378;2023-09-19T08:38:13;6.77;;;4.90;;
20076;SDS011;12348;42.710;23.378;2023-09-19T08:40:40;7.73;;;4.03;;
20076;SDS011;12348;42.710;23.378;2023-09-19T08:43:08;6.10;;;3.70;;
20076;SDS011;12348;42.710;23.378;2023-09-19T08:45:35;6.70;;;3.83;;
20076;SDS011;12348;42.710;23.378;2023-09-19T08:48:10;9.10;;;3.90;;
20076;SDS011;12348;42.710;23.378;2023-09-19T08:50:47;5.67;;;3.80;;
20076;SDS011;12348;42.710;23.378;2023-09-19T08:53:21;4.83;;;4.17;;
20076;SDS011;12348;42.710;23.378;2023-09-19T08:55:54;5.17;;;3.87;;
20076;SDS011;12348;42.710;23.378;2023-09-19T08:58:23;5.63;;;3.83;;
20076;SDS011;12348;42.710;23.378;2023-09-19T09:00:54;6.97;;;4.37;;
20076;SDS011;12348;42.710;23.378;2023-09-19T09:03:26;10.33;;;5.87;;
20076;SDS011;12348;42.710;23.378;2023-09-19T09:05:58;7.87;;;4.73;;
20076;SDS011;12348;42.710;23.378;2023-09-19T09:08:27;8.03;;;4.43;;
20076;SDS011;12348;42.710;23.378;2023-09-19T09:10:56;6.03;;;4.47;;
20076;SDS011;12348;42.710;23.378;2023-09-19T09:13:24;8.83;;;5.37;;
20076;SDS011;12348;42.710;23.378;2023-09-19T09:15:51;6.73;;;3.97;;
20076;SDS011;12348;42.710;23.378;2023-09-19T09:18:19;8.27;;;4.73;;
20076;SDS011;12348;42.710;23.378;2023-09-19T09:20:47;4.90;;;3.37;;
20076;SDS011;12348;42.710;23.378;2023-09-19T09:23:14;5.93;;;3.70;;
20076;SDS011;12348;42.710;23.378;2023-09-19T09:25:49;4.23;;;3.60;;
20076;SDS011;12348;42.710;23.378;2023-09-19T09:28:20;6.10;;;3.63;;
20076;SDS011;12348;42.710;23.378;2023-09-19T09:30:47;7.73;;;4.13;;
20076;SDS011;12348;42.710;23.378;2023-09-19T09:33:15;5.57;;;3.73;;
20076;SDS011;12348;42.710;23.378;2023-09-19T09:35:48;5.37;;;3.23;;
20076;SDS011;12348;42.710;23.378;2023-09-19T09:38:17;10.23;;;4.67;;
20076;SDS011;12348;42.710;23.378;2023-09-19T09:40:50;4.30;;;3.73;;
20076;SDS011;12348;42.710;23.378;2023-09-19T09:43:30;5.93;;;3.93;;
20076;SDS011;12348;42.710;23.378;2023-09-19T09:46:14;5.53;;;3.80;;
20076;SDS011;12348;42.710;23.378;2023-09-19T09:48:59;8.57;;;3.83;;
20076;SDS011;12348;42.710;23.378;2023-09-19T09:51:44;5.47;;;4.10;;
20076;SDS011;12348;42.710;23.378;2023-09-19T09:54:14;6.47;;;3.83;;
20076;SDS011;12348;42.710;23.378;2023-09-19T09:56:53;10.80;;;4.17;;
20076;SDS011;12348;42.710;23.378;2023-09-19T09:59:35;4.90;;;3.57;;
20076;SDS011;12348;42.710;23.378;2023-09-19T10:02:14;7.63;;;3.80;;
20076;SDS011;12348;42.710;23.378;2023-09-19T10:04:48;8.03;;;3.73;;
20076;SDS011;12348;42.710;23.378;2023-09-19T10:07:40;7.37;;;3.70;;
20076;SDS011;12348;42.710;23.378;2023-09-19T10:10:13;5.80;;;3.83;;
20076;SDS011;12348;42.710;23.378;2023-09-19T10:12:45;7.60;;;4.10;;
20076;SDS011;12348;42.710;23.378;2023-09-19T10:15:14;7.77;;;4.00;;
20076;SDS011;12348;42.710;23.378;2023-09-19T10:17:43;4.37;;;3.73;;
20076;SDS011;12348;42.710;23.378;2023-09-19T10:20:14;6.87;;;3.43;;
20076;SDS011;12348;42.710;23.378;2023-09-19T10:23:01;8.13;;;3.90;;
20076;SDS011;12348;42.710;23.378;2023-09-19T10:25:34;4.60;;;3.93;;
20076;SDS011;12348;42.710;23.378;2023-09-19T10:28:05;5.90;;;3.63;;
20076;SDS011;12348;42.710;23.378;2023-09-19T10:30:36;10.57;;;4.10;;
20076;SDS011;12348;42.710;23.378;2023-09-19T10:33:09;10.17;;;4.20;;
20076;SDS011;12348;42.710;23.378;2023-09-19T10:35:37;11.10;;;3.90;;
20076;SDS011;12348;42.710;23.378;2023-09-19T10:38:06;8.57;;;3.83;;
20076;SDS011;12348;42.710;23.378;2023-09-19T10:40:35;9.20;;;3.90;;
20076;SDS011;12348;42.710;23.378;2023-09-19T10:43:07;8.60;;;4.07;;
20076;SDS011;12348;42.710;23.378;2023-09-19T10:45:38;9.53;;;4.70;;
20076;SDS011;12348;42.710;23.378;2023-09-19T10:48:06;7.47;;;4.00;;
20076;SDS011;12348;42.710;23.378;2023-09-19T10:50:35;4.93;;;4.10;;
20076;SDS011;12348;42.710;23.378;2023-09-19T10:53:10;8.63;;;5.20;;
20076;SDS011;12348;42.710;23.378;2023-09-19T10:55:38;8.97;;;3.97;;
20076;SDS011;12348;42.710;23.378;2023-09-19T10:58:07;5.13;;;4.03;;
20076;SDS011;12348;42.710;23.378;2023-09-19T11:03:26;6.87;;;4.43;;
20076;SDS011;12348;42.710;23.378;2023-09-19T11:06:05;11.93;;;4.67;;
20076;SDS011;12348;42.710;23.378;2023-09-19T11:09:00;10.00;;;4.13;;
20076;SDS011;12348;42.710;23.378;2023-09-19T11:11:48;11.83;;;4.47;;
20076;SDS011;12348;42.710;23.378;2023-09-19T11:14:32;5.97;;;4.30;;
20076;SDS011;12348;42.710;23.378;2023-09-19T11:20:20;5.53;;;4.23;;
20076;SDS011;12348;42.710;23.378;2023-09-19T11:23:19;7.90;;;4.30;;
20076;SDS011;12348;42.710;23.378;2023-09-19T11:25:52;8.43;;;4.93;;
20076;SDS011;12348;42.710;23.378;2023-09-19T11:40:33;7.73;;;4.80;;
20076;SDS011;12348;42.710;23.378;2023-09-19T11:43:00;5.40;;;4.30;;
20076;SDS011;12348;42.710;23.378;2023-09-19T11:46:08;6.33;;;4.37;;
20076;SDS011;12348;42.710;23.378;2023-09-19T11:48:37;7.90;;;4.53;;
20076;SDS011;12348;42.710;23.378;2023-09-19T11:51:17;7.77;;;4.50;;
20076;SDS011;12348;42.710;23.378;2023-09-19T11:53:47;6.77;;;4.43;;
20076;SDS011;12348;42.710;23.378;2023-09-19T11:56:15;6.30;;;4.43;;
20076;SDS011;12348;42.710;23.378;2023-09-19T11:58:43;9.67;;;4.10;;
20076;SDS011;12348;42.710;23.378;2023-09-19T12:01:12;7.03;;;4.47;;
20076;SDS011;12348;42.710;23.378;2023-09-19T12:03:46;5.00;;;4.10;;
20076;SDS011;12348;42.710;23.378;2023-09-19T12:06:16;11.43;;;4.30;;
20076;SDS011;12348;42.710;23.378;2023-09-19T12:08:43;5.37;;;4.63;;
20076;SDS011;12348;42.710;23.378;2023-09-19T12:11:12;5.80;;;4.50;;
20076;SDS011;12348;42.710;23.378;2023-09-19T12:13:41;10.70;;;4.50;;
20076;SDS011;12348;42.710;23.378;2023-09-19T12:16:14;6.47;;;4.40;;
20076;SDS011;12348;42.710;23.378;2023-09-19T12:18:41;8.53;;;4.80;;
20076;SDS011;12348;42.710;23.378;2023-09-19T12:21:22;9.17;;;4.33;;
20076;SDS011;12348;42.710;23.378;2023-09-19T12:23:57;7.60;;;4.30;;
20076;SDS011;12348;42.710;23.378;2023-09-19T12:26:26;9.00;;;4.30;;
20076;SDS011;12348;42.710;23.378;2023-09-19T12:28:54;6.73;;;4.10;;
20076;SDS011;12348;42.710;23.378;2023-09-19T12:31:21;8.00;;;4.73;;
20076;SDS011;12348;42.710;23.378;2023-09-19T12:33:52;7.40;;;4.70;;
20076;SDS011;12348;42.710;23.378;2023-09-19T12:36:20;7.70;;;4.83;;
20076;SDS011;12348;42.710;23.378;2023-09-19T12:38:54;7.37;;;5.17;;
20076;SDS011;12348;42.710;23.378;2023-09-19T12:41:24;10.07;;;4.80;;
20076;SDS011;12348;42.710;23.378;2023-09-19T12:43:51;11.07;;;5.20;;
20076;SDS011;12348;42.710;23.378;2023-09-19T12:46:19;9.13;;;5.00;;
20076;SDS011;12348;42.710;23.378;2023-09-19T12:48:51;8.07;;;4.80;;
20076;SDS011;12348;42.710;23.378;2023-09-19T12:51:44;9.13;;;5.20;;
20076;SDS011;12348;42.710;23.378;2023-09-19T12:54:11;7.53;;;5.43;;
20076;SDS011;12348;42.710;23.378;2023-09-19T12:56:40;10.53;;;5.27;;
20076;SDS011;12348;42.710;23.378;2023-09-19T12:59:09;18.60;;;6.53;;
20076;SDS011;12348;42.710;23.378;2023-09-19T13:01:38;9.03;;;5.30;;
20076;SDS011;12348;42.710;23.378;2023-09-19T13:04:13;7.23;;;4.30;;
20076;SDS011;12348;42.710;23.378;2023-09-19T13:06:44;8.03;;;5.50;;
20076;SDS011;12348;42.710;23.378;2023-09-19T13:09:13;11.50;;;5.40;;
20076;SDS011;12348;42.710;23.378;2023-09-19T13:11:41;7.17;;;5.17;;
20076;SDS011;12348;42.710;23.378;2023-09-19T13:14:16;9.00;;;5.00;;
20076;SDS011;12348;42.710;23.378;2023-09-19T13:16:54;11.43;;;5.50;;
20076;SDS011;12348;42.710;23.378;2023-09-19T13:19:34;10.83;;;4.97;;
20076;SDS011;12348;42.710;23.378;2023-09-19T13:22:04;10.70;;;5.67;;
20076;SDS011;12348;42.710;23.378;2023-09-19T13:24:31;9.87;;;5.13;;
20076;SDS011;12348;42.710;23.378;2023-09-19T13:27:00;10.03;;;6.07;;
20076;SDS011;12348;42.710;23.378;2023-09-19T13:29:28;11.43;;;5.23;;
20076;SDS011;12348;42.710;23.378;2023-09-19T13:31:55;9.00;;;5.00;;
20076;SDS011;12348;42.710;23.378;2023-09-19T13:34:22;7.77;;;4.40;;
20076;SDS011;12348;42.710;23.378;2023-09-19T13:36:49;10.50;;;5.73;;
20076;SDS011;12348;42.710;23.378;2023-09-19T13:39:19;9.90;;;5.60;;
20076;SDS011;12348;42.710;23.378;2023-09-19T13:41:46;10.47;;;5.17;;
20076;SDS011;12348;42.710;23.378;2023-09-19T13:44:14;8.23;;;5.47;;
20076;SDS011;12348;42.710;23.378;2023-09-19T13:46:42;8.63;;;5.37;;
20076;SDS011;12348;42.710;23.378;2023-09-19T13:49:10;9.83;;;5.73;;
20076;SDS011;12348;42.710;23.378;2023-09-19T13:51:37;11.33;;;5.73;;
20076;SDS011;12348;42.710;23.378;2023-09-19T13:54:05;8.57;;;5.83;;
20076;SDS011;12348;42.710;23.378;2023-09-19T13:56:33;8.00;;;5.57;;
20076;SDS011;12348;42.710;23.378;2023-09-19T13:59:01;8.47;;;5.13;;
20076;SDS011;12348;42.710;23.378;2023-09-19T14:01:28;10.80;;;5.80;;
20076;SDS011;12348;42.710;23.378;2023-09-19T14:03:55;8.13;;;5.30;;
20076;SDS011;12348;42.710;23.378;2023-09-19T14:06:22;13.00;;;7.13;;
20076;SDS011;12348;42.710;23.378;2023-09-19T14:08:49;7.33;;;5.50;;
20076;SDS011;12348;42.710;23.378;2023-09-19T14:11:16;8.77;;;5.67;;
20076;SDS011;12348;42.710;23.378;2023-09-19T14:13:44;8.77;;;5.10;;
20076;SDS011;12348;42.710;23.378;2023-09-19T14:16:13;10.03;;;5.03;;
20076;SDS011;12348;42.710;23.378;2023-09-19T14:18:40;10.63;;;5.50;;
20076;SDS011;12348;42.710;23.378;2023-09-19T14:21:07;8.70;;;6.07;;
20076;SDS011;12348;42.710;23.378;2023-09-19T14:23:36;8.90;;;5.73;;
20076;SDS011;12348;42.710;23.378;2023-09-19T14:26:03;10.67;;;6.70;;
20076;SDS011;12348;42.710;23.378;2023-09-19T14:28:31;6.80;;;5.40;;
20076;SDS011;12348;42.710;23.378;2023-09-19T14:31:05;10.00;;;6.43;;
20076;SDS011;12348;42.710;23.378;2023-09-19T14:33:32;11.23;;;5.90;;
20076;SDS011;12348;42.710;23.378;2023-09-19T14:36:02;15.73;;;5.40;;
20076;SDS011;12348;42.710;23.378;2023-09-19T14:38:30;12.07;;;5.77;;
20076;SDS011;12348;42.710;23.378;2023-09-19T14:40:59;7.80;;;4.80;;
20076;SDS011;12348;42.710;23.378;2023-09-19T14:43:26;8.13;;;5.80;;
20076;SDS011;12348;42.710;23.378;2023-09-19T14:45:54;7.73;;;5.63;;
20076;SDS011;12348;42.710;23.378;2023-09-19T14:48:23;8.13;;;5.43;;
20076;SDS011;12348;42.710;23.378;2023-09-19T14:50:51;9.83;;;5.80;;
20076;SDS011;12348;42.710;23.378;2023-09-19T14:53:18;10.77;;;6.83;;
20076;SDS011;12348;42.710;23.378;2023-09-19T14:55:45;11.17;;;6.33;;
20076;SDS011;12348;42.710;23.378;2023-09-19T14:58:13;8.50;;;5.70;;
20076;SDS011;12348;42.710;23.378;2023-09-19T15:00:39;10.83;;;6.50;;
20076;SDS011;12348;42.710;23.378;2023-09-19T15:03:06;11.13;;;5.83;;